sensor_id;sensor_type;location;lat;lon;timestamp;temperature;humidity
66337;SHT30;53139;45.576;5.304;2022-09-20T13:43:46;26.24;35.75
66337;SHT30;53139;45.576;5.304;2022-09-20T13:46:50;25.09;38.04
66337;SHT30;53139;45.576;5.304;2022-09-20T13:50:06;25.49;37.20
66337;SHT30;53139;45.576;5.304;2022-09-20T13:53:16;26.13;39.42
66337;SHT30;53139;45.576;5.304;2022-09-20T13:56:23;24.28;38.17
66337;SHT30;53139;45.576;5.304;2022-09-20T13:59:32;26.02;40.17
66337;SHT30;53139;45.576;5.304;2022-09-20T14:02:35;26.20;37.98
66337;SHT30;53139;45.576;5.304;2022-09-20T14:05:48;25.94;37.07
66337;SHT30;53139;45.576;5.304;2022-09-20T14:08:51;25.23;37.74
66337;SHT30;53139;45.576;5.304;2022-09-20T14:11:54;26.30;35.46
66337;SHT30;53139;45.576;5.304;2022-09-20T14:14:57;24.41;37.60
66337;SHT30;53139;45.576;5.304;2022-09-20T14:18:00;24.44;39.50
66337;SHT30;53139;45.576;5.304;2022-09-20T14:21:09;23.92;39.52
66337;SHT30;53139;45.576;5.304;2022-09-20T14:27:21;25.00;37.67
66337;SHT30;53139;45.576;5.304;2022-09-20T14:30:32;24.89;36.04
66337;SHT30;53139;45.576;5.304;2022-09-20T14:33:40;25.57;37.48
66337;SHT30;53139;45.576;5.304;2022-09-20T14:36:43;24.54;39.29
66337;SHT30;53139;45.576;5.304;2022-09-20T14:39:49;24.97;37.59
66337;SHT30;53139;45.576;5.304;2022-09-20T14:43:00;25.31;37.02
66337;SHT30;53139;45.576;5.304;2022-09-20T14:46:10;25.73;37.87
66337;SHT30;53139;45.576;5.304;2022-09-20T14:55:27;25.57;37.75
66337;SHT30;53139;45.576;5.304;2022-09-20T14:58:32;24.47;37.17
66337;SHT30;53139;45.576;5.304;2022-09-20T15:01:39;24.07;38.59
66337;SHT30;53139;45.576;5.304;2022-09-20T15:04:57;23.76;39.03
66337;SHT30;53139;45.576;5.304;2022-09-20T15:08:01;24.27;37.80
66337;SHT30;53139;45.576;5.304;2022-09-20T15:11:04;23.06;39.74
66337;SHT30;53139;45.576;5.304;2022-09-20T15:14:07;23.11;40.80
66337;SHT30;53139;45.576;5.304;2022-09-20T15:17:15;23.59;39.70
66337;SHT30;53139;45.576;5.304;2022-09-20T15:20:20;23.10;39.47
66337;SHT30;53139;45.576;5.304;2022-09-20T15:23:23;23.70;40.00
66337;SHT30;53139;45.576;5.304;2022-09-20T15:26:25;23.15;39.23
66337;SHT30;53139;45.576;5.304;2022-09-20T15:29:28;24.04;39.27
66337;SHT30;53139;45.576;5.304;2022-09-20T15:32:31;23.96;38.50
66337;SHT30;53139;45.576;5.304;2022-09-20T15:35:37;22.41;39.82
66337;SHT30;53139;45.576;5.304;2022-09-20T15:38:40;22.83;39.68
66337;SHT30;53139;45.576;5.304;2022-09-20T15:41:42;22.17;40.26
66337;SHT30;53139;45.576;5.304;2022-09-20T15:44:48;22.72;40.65
66337;SHT30;53139;45.576;5.304;2022-09-20T15:47:53;22.89;41.30
66337;SHT30;53139;45.576;5.304;2022-09-20T15:51:06;23.25;39.71
66337;SHT30;53139;45.576;5.304;2022-09-20T15:54:11;23.48;39.88
66337;SHT30;53139;45.576;5.304;2022-09-20T15:57:14;22.96;39.63
66337;SHT30;53139;45.576;5.304;2022-09-20T16:00:17;22.60;40.31
66337;SHT30;53139;45.576;5.304;2022-09-20T16:03:20;22.29;41.14
66337;SHT30;53139;45.576;5.304;2022-09-20T16:06:30;22.89;40.22
66337;SHT30;53139;45.576;5.304;2022-09-20T16:09:33;22.24;39.96
66337;SHT30;53139;45.576;5.304;2022-09-20T16:12:37;21.77;41.86
66337;SHT30;53139;45.576;5.304;2022-09-20T16:15:39;22.28;41.38
66337;SHT30;53139;45.576;5.304;2022-09-20T16:18:43;21.41;42.66
66337;SHT30;53139;45.576;5.304;2022-09-20T16:22:04;21.27;41.98
66337;SHT30;53139;45.576;5.304;2022-09-20T16:25:07;21.18;42.69
66337;SHT30;53139;45.576;5.304;2022-09-20T16:28:10;21.35;42.94
66337;SHT30;53139;45.576;5.304;2022-09-20T16:34:33;20.70;44.53
66337;SHT30;53139;45.576;5.304;2022-09-20T16:37:35;20.38;43.79
66337;SHT30;53139;45.576;5.304;2022-09-20T16:40:40;19.97;44.65
66337;SHT30;53139;45.576;5.304;2022-09-20T16:43:42;19.64;46.04
66337;SHT30;53139;45.576;5.304;2022-09-20T16:46:45;19.46;46.33
66337;SHT30;53139;45.576;5.304;2022-09-20T16:49:48;18.95;45.81
66337;SHT30;53139;45.576;5.304;2022-09-20T16:52:52;18.57;47.12
66337;SHT30;53139;45.576;5.304;2022-09-20T16:55:55;18.49;47.75
66337;SHT30;53139;45.576;5.304;2022-09-20T16:58:57;18.43;48.38
66337;SHT30;53139;45.576;5.304;2022-09-20T17:02:00;18.19;48.24
66337;SHT30;53139;45.576;5.304;2022-09-20T17:05:03;18.05;49.10
66337;SHT30;53139;45.576;5.304;2022-09-20T17:08:05;17.98;49.39
66337;SHT30;53139;45.576;5.304;2022-09-20T17:11:19;17.83;49.58
66337;SHT30;53139;45.576;5.304;2022-09-20T17:14:23;17.66;49.45
66337;SHT30;53139;45.576;5.304;2022-09-20T17:17:26;17.60;50.06
66337;SHT30;53139;45.576;5.304;2022-09-20T17:20:29;17.42;50.83
66337;SHT30;53139;45.576;5.304;2022-09-20T17:23:32;17.28;50.58
66337;SHT30;53139;45.576;5.304;2022-09-20T17:26:37;17.09;51.46
66337;SHT30;53139;45.576;5.304;2022-09-20T17:29:41;17.05;51.89
66337;SHT30;53139;45.576;5.304;2022-09-20T17:32:43;16.96;51.13
66337;SHT30;53139;45.576;5.304;2022-09-20T17:35:50;16.85;51.80
66337;SHT30;53139;45.576;5.304;2022-09-20T17:38:54;16.74;52.53
66337;SHT30;53139;45.576;5.304;2022-09-20T17:41:57;16.53;52.90
66337;SHT30;53139;45.576;5.304;2022-09-20T17:44:59;16.42;54.53
66337;SHT30;53139;45.576;5.304;2022-09-20T17:48:02;16.22;54.46
66337;SHT30;53139;45.576;5.304;2022-09-20T17:51:06;16.26;54.08
66337;SHT30;53139;45.576;5.304;2022-09-20T17:54:09;15.97;54.97
66337;SHT30;53139;45.576;5.304;2022-09-20T17:57:15;16.26;53.42
66337;SHT30;53139;45.576;5.304;2022-09-20T18:00:17;16.22;53.66
66337;SHT30;53139;45.576;5.304;2022-09-20T18:03:20;15.92;54.93
66337;SHT30;53139;45.576;5.304;2022-09-20T18:06:28;16.02;54.28
66337;SHT30;53139;45.576;5.304;2022-09-20T18:09:31;15.98;54.37
66337;SHT30;53139;45.576;5.304;2022-09-20T18:12:33;15.88;54.57
66337;SHT30;53139;45.576;5.304;2022-09-20T18:15:36;15.82;54.69
66337;SHT30;53139;45.576;5.304;2022-09-20T18:18:39;15.71;55.16
66337;SHT30;53139;45.576;5.304;2022-09-20T18:21:42;15.50;56.35
66337;SHT30;53139;45.576;5.304;2022-09-20T18:24:44;15.42;56.48
66337;SHT30;53139;45.576;5.304;2022-09-20T18:27:47;15.29;57.05
66337;SHT30;53139;45.576;5.304;2022-09-20T18:31:00;15.25;57.18
66337;SHT30;53139;45.576;5.304;2022-09-20T18:34:05;15.32;56.61
66337;SHT30;53139;45.576;5.304;2022-09-20T18:37:08;15.60;54.71
66337;SHT30;53139;45.576;5.304;2022-09-20T18:40:13;15.43;55.67
66337;SHT30;53139;45.576;5.304;2022-09-20T18:43:16;15.18;56.75
66337;SHT30;53139;45.576;5.304;2022-09-20T18:46:18;15.13;57.08
66337;SHT30;53139;45.576;5.304;2022-09-20T18:49:24;15.09;57.05
66337;SHT30;53139;45.576;5.304;2022-09-20T18:52:27;14.98;57.63
66337;SHT30;53139;45.576;5.304;2022-09-20T18:55:31;15.08;56.92
66337;SHT30;53139;45.576;5.304;2022-09-20T18:58:35;14.88;57.80
66337;SHT30;53139;45.576;5.304;2022-09-20T19:08:33;14.75;58.16
66337;SHT30;53139;45.576;5.304;2022-09-20T19:11:46;14.65;58.48
66337;SHT30;53139;45.576;5.304;2022-09-20T19:25:27;14.65;58.09
66337;SHT30;53139;45.576;5.304;2022-09-20T19:28:33;14.50;58.73
66337;SHT30;53139;45.576;5.304;2022-09-20T19:31:36;14.46;58.83
66337;SHT30;53139;45.576;5.304;2022-09-20T19:34:41;14.47;59.10
66337;SHT30;53139;45.576;5.304;2022-09-20T19:38:05;14.10;60.10
66337;SHT30;53139;45.576;5.304;2022-09-20T19:41:57;14.10;60.43
66337;SHT30;53139;45.576;5.304;2022-09-20T19:48:20;14.09;60.11
66337;SHT30;53139;45.576;5.304;2022-09-20T19:51:30;14.16;59.75
66337;SHT30;53139;45.576;5.304;2022-09-20T19:54:33;14.06;60.29
66337;SHT30;53139;45.576;5.304;2022-09-20T19:57:44;13.81;60.98
66337;SHT30;53139;45.576;5.304;2022-09-20T20:00:48;13.33;63.40
66337;SHT30;53139;45.576;5.304;2022-09-20T20:03:52;13.33;63.26
66337;SHT30;53139;45.576;5.304;2022-09-20T20:06:58;13.20;64.11
66337;SHT30;53139;45.576;5.304;2022-09-20T20:10:19;13.15;64.57
66337;SHT30;53139;45.576;5.304;2022-09-20T20:13:31;13.00;65.26
66337;SHT30;53139;45.576;5.304;2022-09-20T20:26:49;12.45;67.78
66337;SHT30;53139;45.576;5.304;2022-09-20T20:29:51;12.30;68.04
66337;SHT30;53139;45.576;5.304;2022-09-20T20:32:55;12.17;68.34
66337;SHT30;53139;45.576;5.304;2022-09-20T20:36:00;11.62;71.16
66337;SHT30;53139;45.576;5.304;2022-09-20T20:39:03;11.64;71.89
66337;SHT30;53139;45.576;5.304;2022-09-20T20:42:06;11.95;70.03
66337;SHT30;53139;45.576;5.304;2022-09-20T20:45:11;11.55;72.56
66337;SHT30;53139;45.576;5.304;2022-09-20T20:48:13;11.71;70.46
66337;SHT30;53139;45.576;5.304;2022-09-20T20:51:18;11.45;71.72
66337;SHT30;53139;45.576;5.304;2022-09-20T20:54:21;11.20;73.11
66337;SHT30;53139;45.576;5.304;2022-09-20T20:57:21;11.33;72.82
66337;SHT30;53139;45.576;5.304;2022-09-20T21:00:24;11.23;72.85
66337;SHT30;53139;45.576;5.304;2022-09-20T21:03:26;11.27;71.77
66337;SHT30;53139;45.576;5.304;2022-09-20T21:06:29;10.93;74.80
66337;SHT30;53139;45.576;5.304;2022-09-20T21:09:33;11.19;72.86
66337;SHT30;53139;45.576;5.304;2022-09-20T21:12:35;11.06;72.13
66337;SHT30;53139;45.576;5.304;2022-09-20T21:15:38;10.91;73.60
66337;SHT30;53139;45.576;5.304;2022-09-20T21:18:41;10.67;76.14
66337;SHT30;53139;45.576;5.304;2022-09-20T21:21:45;11.17;72.96
66337;SHT30;53139;45.576;5.304;2022-09-20T21:24:49;11.16;73.15
66337;SHT30;53139;45.576;5.304;2022-09-20T21:27:52;10.93;74.77
66337;SHT30;53139;45.576;5.304;2022-09-20T21:30:55;11.10;74.28
66337;SHT30;53139;45.576;5.304;2022-09-20T21:33:58;10.99;74.57
66337;SHT30;53139;45.576;5.304;2022-09-20T21:37:01;10.69;76.57
66337;SHT30;53139;45.576;5.304;2022-09-20T21:40:04;10.75;75.37
66337;SHT30;53139;45.576;5.304;2022-09-20T21:43:06;10.58;76.98
66337;SHT30;53139;45.576;5.304;2022-09-20T21:49:13;10.58;75.07
66337;SHT30;53139;45.576;5.304;2022-09-20T21:52:15;10.64;74.28
66337;SHT30;53139;45.576;5.304;2022-09-20T21:55:18;10.75;75.27
66337;SHT30;53139;45.576;5.304;2022-09-20T21:58:20;10.60;74.81
66337;SHT30;53139;45.576;5.304;2022-09-20T22:01:25;10.23;78.00
66337;SHT30;53139;45.576;5.304;2022-09-20T22:04:27;10.45;76.51
66337;SHT30;53139;45.576;5.304;2022-09-20T22:07:30;10.44;75.81
66337;SHT30;53139;45.576;5.304;2022-09-20T22:10:35;10.38;75.02
66337;SHT30;53139;45.576;5.304;2022-09-20T22:13:39;10.24;75.42
66337;SHT30;53139;45.576;5.304;2022-09-20T22:16:43;10.23;76.93
66337;SHT30;53139;45.576;5.304;2022-09-20T22:19:46;10.23;77.43
66337;SHT30;53139;45.576;5.304;2022-09-20T22:22:48;10.26;77.65
66337;SHT30;53139;45.576;5.304;2022-09-20T22:26:00;10.09;78.47
66337;SHT30;53139;45.576;5.304;2022-09-20T22:29:04;10.03;77.79
66337;SHT30;53139;45.576;5.304;2022-09-20T22:32:07;10.10;77.44
66337;SHT30;53139;45.576;5.304;2022-09-20T22:35:10;10.09;78.16
66337;SHT30;53139;45.576;5.304;2022-09-20T22:38:14;10.07;78.45
66337;SHT30;53139;45.576;5.304;2022-09-20T22:41:17;9.83;80.55
66337;SHT30;53139;45.576;5.304;2022-09-20T22:44:20;9.85;79.44
66337;SHT30;53139;45.576;5.304;2022-09-20T22:47:23;9.48;81.44
66337;SHT30;53139;45.576;5.304;2022-09-20T22:50:25;9.77;79.96
66337;SHT30;53139;45.576;5.304;2022-09-20T22:53:28;9.34;82.37
66337;SHT30;53139;45.576;5.304;2022-09-20T22:56:31;9.48;82.87
66337;SHT30;53139;45.576;5.304;2022-09-20T22:59:34;9.54;82.13
66337;SHT30;53139;45.576;5.304;2022-09-20T23:02:36;9.44;82.69
66337;SHT30;53139;45.576;5.304;2022-09-20T23:05:39;9.62;80.92
66337;SHT30;53139;45.576;5.304;2022-09-20T23:08:41;9.50;81.11
66337;SHT30;53139;45.576;5.304;2022-09-20T23:11:45;9.58;79.74
66337;SHT30;53139;45.576;5.304;2022-09-20T23:14:47;9.34;81.43
66337;SHT30;53139;45.576;5.304;2022-09-20T23:17:50;9.38;80.28
66337;SHT30;53139;45.576;5.304;2022-09-20T23:20:59;9.31;80.68
66337;SHT30;53139;45.576;5.304;2022-09-20T23:24:05;9.31;81.12
66337;SHT30;53139;45.576;5.304;2022-09-20T23:27:07;9.28;81.03
66337;SHT30;53139;45.576;5.304;2022-09-20T23:30:10;9.24;81.27
66337;SHT30;53139;45.576;5.304;2022-09-20T23:33:13;9.17;81.92
66337;SHT30;53139;45.576;5.304;2022-09-20T23:36:17;8.99;82.28
66337;SHT30;53139;45.576;5.304;2022-09-20T23:39:19;8.97;81.39
66337;SHT30;53139;45.576;5.304;2022-09-20T23:42:22;8.86;82.49
66337;SHT30;53139;45.576;5.304;2022-09-20T23:45:24;8.97;82.09
66337;SHT30;53139;45.576;5.304;2022-09-20T23:48:27;9.10;80.90
66337;SHT30;53139;45.576;5.304;2022-09-20T23:51:30;9.02;81.70
66337;SHT30;53139;45.576;5.304;2022-09-20T23:54:33;8.82;83.21
66337;SHT30;53139;45.576;5.304;2022-09-20T23:57:36;8.83;83.29
